Řízení letového provozu České republiky  
Aktualizace dat:  12.07.2024 23:14:38 UTC English version
   METEO Zobrazení stránky:  12.07.2024 23:15:28 UTC  
vysvětlivky
METAR EDAC 122250Z AUTO 28008KT 9999 // BKN041/// 20/17 Q1009=
METAR EDDB 122250Z AUTO 14005KT 9999 FEW030 BKN043 19/17 Q1008 TEMPO 29015KT SHRA BKN009 BKN045CB=
METAR EDDC 122250Z AUTO 17006KT 9999 SHRA FEW035 FEW///TCU 19/18 Q1008=
METAR EDDE 122250Z AUTO 32008KT CAVOK 16/13 Q1011=
METAR EDDF 122250Z AUTO 31009KT 290V350 9999 OVC020 16/11 Q1013 NOSIG=
METAR EDDM 122250Z AUTO 21008KT 9999 -RA FEW036 17/16 Q1014 RESHRA TEMPO SHRA=
METAR EDDN 122250Z AUTO 21004KT 170V250 9999 SHRA FEW010 BKN017 BKN035 FEW///TCU 19/18 Q1011=
METAR EDDP 122250Z AUTO 33012KT 9999 FEW046 18/15 Q1009 NOSIG=
METAR EDQM 122250Z AUTO 22007KT 9999 // FEW100/// 18/17 Q1011=
METAR EPBY 122300Z 10011KT 9000 -SHRA SCT005 BKN033CB 20/19 Q1008=
METAR EPGD 122300Z 08009KT 040V100 9000 -SHRA FEW005 BKN045TCU 18/18 Q1011=
METAR EPKK 122300Z 30009KT 9999 -TSRA BKN046CB 21/19 Q1009 RESHRA=
METAR EPKT 122300Z VRB01KT 9999 -SHRA FEW009 FEW055CB 19/19 Q1009 RETS=
METAR EPLB 122300Z 08004KT CAVOK 22/20 Q1009=
METAR EPLL 122300Z VRB02KT 6000 TSRA FEW003 BKN026CB 18/18 Q1008 RESHRA=
METAR EPMO 122300Z 04010KT 9999 VCTS SCT068CB 22/20 Q1006=
METAR EPPO 122300Z 08008KT 9999 -SHRA FEW004CB BKN005 20/20 Q1005=
METAR EPRZ 122300Z 10005KT CAVOK 22/18 Q1009=
METAR EPWA 122300Z 11016KT CAVOK 26/19 Q1006 TEMPO TSRA=
METAR EPWR 122300Z 21008KT 9999 FEW017 18/17 Q1008=
METAR LHBP 122300Z 08002KT CAVOK 24/17 Q1008 NOSIG=
METAR LHPR 122245Z AUTO 29003KT CAVOK 21/18 Q1009=
METAR LHSM 122245Z AUTO 30004KT CAVOK 24/21 Q1008=
METAR LKBC 122300Z AUTO 24003KT 210V270 9999 SCT021 BKN030 OVC086 20/18 Q1011=
METAR LKCR 122300Z AUTO 31007KT 9999 FEW100 19/17 Q1009=
METAR LKCS 122300Z AUTO 31004KT 280V340 9999 FEW025/// SCT040/// 20/19 Q1011=
METAR LKCV 122300Z 29001KT CAVOK 19/18 Q1009 NOSIG RMK BLU BLU=
METAR LKKB 122300Z 22003KT 190V250 9999 -RA NSC 19/18 Q1010 RMK BLU=
METAR LKKU NIL
METAR LKKV 122300Z 00000KT 9999 FEW023 16/16 Q1011=
METAR LKLN 122300Z AUTO 17003KT 130V200 9999 SCT038 BKN046 OVC120 18/17 Q1011=
METAR LKMT 122300Z 29003KT 260V340 9999 FEW012 20/19 Q1009 NOSIG=
METAR LKNA 122300Z 30005KT 7000 FEW004 17/17 Q1010 RMK BLACK=
METAR LKPD 122300Z 32004KT 280V340 CAVOK 19/19 Q1009 RMK BLU=
SPECI LKPJ 122302Z AUTO VRB01KT 0300 FG NCD 18/18 Q1009=
METAR LKPR 122300Z 20003KT 100V250 9999 FEW030 18/18 Q1010 NOSIG=
METAR LKTB 122300Z 15004KT CAVOK 18/18 Q1009 NOSIG=
METAR LKTH 122300Z AUTO VRB03KT 9999 BKN120 16/16 Q1010=
METAR LKVO NIL
METAR LOWG 122250Z AUTO VRB02KT 9999 1300W R16/P1500D R34/P1500D BR NCD 18/18 Q1010=
METAR LOWI 122250Z AUTO VRB07KT 9999 -RA VCTS //////CB FEW048 BKN070 17/14 Q1014=
METAR LOWK 122250Z AUTO VRB01KT 9999 FEW016 19/17 Q1012=
METAR LOWL 122250Z AUTO 28013KT 7000 +SHRA FEW026 SCT044 BKN050 19/16 Q1012=
METAR LOWS 122250Z AUTO VRB02KT 9999 RA FEW001 BKN030 17/16 Q1015=
METAR LOWW 122250Z 14004KT 8000 FEW001 18/18 Q1010 NOSIG=
METAR LOXT NIL
METAR LOXZ NIL
METAR LZIB 122300Z 35003KT 9999 SCT047 21/19 Q1009 NOSIG=
METAR LZKZ 122300Z 31003KT 250V340 CAVOK 24/19 Q1009 NOSIG=
METAR LZMC 122300Z AUTO 36004KT 330V040 //// ////// 19/18 Q1010=
METAR LZPP 122300Z AUTO 02003KT 320V060 9999 21/20 Q1009=
METAR LZSL 122300Z AUTO VRB02KT 9999 // OVC150/// 21/20 Q1010=
METAR LZTT 122300Z 27003KT CAVOK 19/18 Q1012=
METAR LZZI 122300Z 04004KT 350V080 9999 TSRA FEW006 FEW035CB 19/19 Q1010=